Time;durP1;ratioP1;P1;durP2;ratioP2;P2;SDS_P1;SDS_P2;PMS_P1;PMS_P2;Temp;Humidity;BMP_temperature;BMP_pressure;BME280_temperature;BME280_humidity;BME280_pressure;Samples;Min_cycle;Max_cycle;Signal;HPM_P1;HPM_P2
2021/11/25 00:00:45;;;;;;;3.47;1.40;;;7.60;99.90;;;;;;5011626;28;20225;-87
2021/11/25 00:03:17;;;;;;;4.90;1.20;;;7.60;99.90;;;;;;5018220;28;20217;-87
2021/11/25 00:05:49;;;;;;;4.77;1.53;;;7.60;99.90;;;;;;5024668;28;20210;-87
2021/11/25 00:08:21;;;;;;;9.07;1.57;;;7.60;99.90;;;;;;5029881;28;20217;-87
2021/11/25 00:10:53;;;;;;;8.57;2.63;;;7.50;99.90;;;;;;5031074;28;20217;-88
2021/11/25 00:13:27;;;;;;;2.83;1.50;;;7.50;99.90;;;;;;5027305;28;20216;-88
2021/11/25 00:16:02;;;;;;;5.77;2.50;;;7.50;99.90;;;;;;5023084;28;20202;-89
2021/11/25 00:18:34;;;;;;;6.03;2.60;;;7.50;99.90;;;;;;5018211;28;20201;-88
2021/11/25 00:21:09;;;;;;;4.77;2.10;;;7.40;99.90;;;;;;5011066;28;20234;-88
2021/11/25 00:23:42;;;;;;;5.23;1.93;;;7.40;99.90;;;;;;5023923;28;20260;-89
2021/11/25 00:26:16;;;;;;;5.57;2.07;;;7.30;99.90;;;;;;5026811;28;20228;-88
2021/11/25 00:28:49;;;;;;;6.37;2.20;;;7.30;99.90;;;;;;5026148;28;20651;-88
2021/11/25 00:31:23;;;;;;;3.10;1.93;;;7.30;99.90;;;;;;5025352;28;20696;-87
2021/11/25 00:33:55;;;;;;;5.10;2.10;;;7.30;99.90;;;;;;5020835;28;20202;-86
2021/11/25 00:36:28;;;;;;;4.13;2.77;;;7.30;99.90;;;;;;5017421;28;20209;-84
2021/11/25 00:38:59;;;;;;;7.03;2.57;;;7.30;99.90;;;;;;5011087;28;20206;-89
2021/11/25 00:41:31;;;;;;;4.80;2.10;;;7.30;99.90;;;;;;5014033;28;20251;-88
2021/11/25 00:44:04;;;;;;;4.83;2.23;;;7.30;99.90;;;;;;5020934;28;20259;-88
2021/11/25 00:46:40;;;;;;;3.83;2.67;;;7.30;99.90;;;;;;5022813;28;20610;-88
2021/11/25 00:49:12;;;;;;;3.87;2.87;;;7.30;99.90;;;;;;5024942;28;20212;-89
2021/11/25 00:51:44;;;;;;;6.30;2.80;;;7.30;99.90;;;;;;5009231;28;20216;-89
2021/11/25 00:54:15;;;;;;;5.83;3.10;;;7.30;99.90;;;;;;5020008;28;20209;-90
2021/11/25 00:56:47;;;;;;;3.97;3.10;;;7.30;99.90;;;;;;5018401;28;20258;-88
2021/11/25 00:59:23;;;;;;;8.37;3.80;;;7.30;99.90;;;;;;5020972;28;20208;-89
2021/11/25 01:02:00;;;;;;;5.27;3.87;;;7.20;99.90;;;;;;5027456;28;20580;-88
2021/11/25 01:04:33;;;;;;;10.90;4.03;;;7.20;99.90;;;;;;5019009;28;20250;-87
2021/11/25 01:07:06;;;;;;;7.53;3.70;;;7.20;99.90;;;;;;5021735;28;20655;-89
2021/11/25 01:09:39;;;;;;;8.50;3.50;;;7.20;99.90;;;;;;5044400;28;20209;-89
2021/11/25 01:12:12;;;;;;;6.67;2.63;;;7.20;99.90;;;;;;5036047;28;20209;-86
2021/11/25 01:14:45;;;;;;;4.67;2.27;;;7.20;99.90;;;;;;5037275;28;20204;-87
2021/11/25 01:17:22;;;;;;;6.10;1.93;;;7.20;99.90;;;;;;5031471;28;20193;-88
2021/11/25 01:19:55;;;;;;;5.77;1.80;;;7.20;99.90;;;;;;5031044;28;20216;-91
2021/11/25 01:22:27;;;;;;;4.47;1.90;;;7.20;99.90;;;;;;5026386;28;20237;-88
2021/11/25 01:25:00;;;;;;;5.17;2.00;;;7.20;99.90;;;;;;5021710;28;20264;-89
2021/11/25 01:27:32;;;;;;;6.33;2.10;;;7.20;99.90;;;;;;5014767;28;20975;-92
2021/11/25 01:30:06;;;;;;;9.97;2.37;;;7.10;99.90;;;;;;5021587;28;20231;-88
2021/11/25 01:32:42;;;;;;;4.47;2.33;;;7.10;99.90;;;;;;5028552;28;20212;-87
2021/11/25 01:35:15;;;;;;;6.63;2.50;;;7.10;99.90;;;;;;5053338;23;20324;-86
2021/11/25 01:37:50;;;;;;;4.03;1.80;;;7.10;99.90;;;;;;5014281;28;20205;-87
2021/11/25 01:40:25;;;;;;;3.97;2.20;;;7.10;99.90;;;;;;5006778;28;20210;-87
2021/11/25 01:42:57;;;;;;;6.73;1.97;;;7.10;99.90;;;;;;4980986;28;20226;-85
2021/11/25 01:45:29;;;;;;;5.20;1.97;;;7.00;99.90;;;;;;4985453;28;20198;-86
2021/11/25 01:48:03;;;;;;;7.00;2.60;;;7.00;99.90;;;;;;4998058;28;20351;-86
2021/11/25 01:50:36;;;;;;;4.93;2.77;;;7.00;99.90;;;;;;4997228;28;20267;-86
2021/11/25 01:53:09;;;;;;;4.57;2.13;;;7.00;99.90;;;;;;4998852;28;20218;-85
2021/11/25 01:55:41;;;;;;;3.43;2.23;;;7.00;99.90;;;;;;5005845;28;20210;-86
2021/11/25 01:58:13;;;;;;;5.87;2.30;;;7.00;99.90;;;;;;4996205;28;20627;-89
2021/11/25 02:00:48;;;;;;;4.50;2.10;;;7.00;99.90;;;;;;5001576;28;20237;-91
2021/11/25 02:03:23;;;;;;;6.10;2.33;;;7.00;99.90;;;;;;4996521;28;20631;-88
2021/11/25 02:05:58;;;;;;;2.80;1.93;;;7.10;99.90;;;;;;5000070;28;20201;-88
2021/11/25 02:08:30;;;;;;;3.13;1.97;;;7.10;99.90;;;;;;4999497;28;20726;-89
2021/11/25 02:11:03;;;;;;;2.73;1.67;;;7.10;99.90;;;;;;4997274;28;20222;-89
2021/11/25 02:13:35;;;;;;;5.53;2.03;;;7.10;99.90;;;;;;4999894;28;20221;-89
2021/11/25 02:16:08;;;;;;;5.80;2.13;;;7.10;99.90;;;;;;5003361;28;20216;-87
2021/11/25 02:18:44;;;;;;;4.30;1.87;;;7.20;99.90;;;;;;5008944;28;20286;-88
2021/11/25 02:21:20;;;;;;;5.23;2.10;;;7.10;99.90;;;;;;5011541;28;20252;-88
2021/11/25 02:23:52;;;;;;;4.10;1.77;;;7.00;99.90;;;;;;5010536;28;20300;-88
2021/11/25 02:26:24;;;;;;;3.57;1.80;;;7.10;99.90;;;;;;5009002;28;20202;-88
2021/11/25 02:28:56;;;;;;;3.47;1.90;;;7.10;99.90;;;;;;4989813;28;20231;-88
2021/11/25 02:31:28;;;;;;;3.37;1.93;;;7.10;99.90;;;;;;4988415;28;20305;-88
2021/11/25 02:34:00;;;;;;;3.33;1.57;;;7.10;99.90;;;;;;4991341;28;20249;-87
2021/11/25 02:36:34;;;;;;;4.10;1.87;;;7.10;99.90;;;;;;5007178;28;20204;-86
2021/11/25 02:39:07;;;;;;;5.13;1.93;;;7.10;99.90;;;;;;5009839;28;20238;-88
2021/11/25 02:41:39;;;;;;;3.30;1.70;;;7.10;99.90;;;;;;5005336;28;20674;-88
2021/11/25 02:44:11;;;;;;;2.77;1.63;;;7.10;99.90;;;;;;4988757;28;20238;-88
2021/11/25 02:47:00;;;;;;;3.90;1.80;;;7.00;99.90;;;;;;4982959;28;20202;-88
2021/11/25 02:49:33;;;;;;;4.10;1.73;;;7.00;99.90;;;;;;5006217;28;20210;-88
2021/11/25 02:52:09;;;;;;;3.40;1.93;;;7.00;99.90;;;;;;5008706;28;20288;-87
2021/11/25 02:54:45;;;;;;;3.37;1.60;;;7.10;99.90;;;;;;5009742;28;20229;-88
2021/11/25 02:57:17;;;;;;;1.93;1.40;;;7.10;99.90;;;;;;5005952;28;20236;-88
2021/11/25 02:59:51;;;;;;;2.67;1.70;;;7.10;99.90;;;;;;5002808;28;20214;-88
2021/11/25 03:02:23;;;;;;;2.73;1.60;;;7.10;99.90;;;;;;5014088;28;20230;-89
2021/11/25 03:04:57;;;;;;;2.67;1.57;;;7.10;99.90;;;;;;5014471;28;20693;-89
2021/11/25 03:07:31;;;;;;;2.97;1.60;;;7.10;99.90;;;;;;5007712;28;20194;-90
2021/11/25 03:10:02;;;;;;;4.93;1.80;;;7.10;99.90;;;;;;5020270;28;20215;-90
2021/11/25 03:12:37;;;;;;;3.27;1.43;;;7.10;99.90;;;;;;5021335;28;20221;-91
2021/11/25 03:15:10;;;;;;;4.00;1.60;;;7.10;99.90;;;;;;5026333;28;20228;-91
2021/11/25 03:17:42;;;;;;;2.63;1.60;;;7.10;99.90;;;;;;5027921;28;20198;-90
2021/11/25 03:20:16;;;;;;;3.00;1.83;;;7.20;99.90;;;;;;5032177;28;20200;-91
2021/11/25 03:22:52;;;;;;;4.27;1.90;;;7.20;99.90;;;;;;5029374;28;20235;-90
2021/11/25 03:25:25;;;;;;;2.40;1.70;;;7.10;99.90;;;;;;5038419;28;20196;-92
2021/11/25 03:27:58;;;;;;;3.00;1.87;;;7.20;99.90;;;;;;5039353;28;20205;-92
2021/11/25 03:30:30;;;;;;;2.87;1.60;;;7.10;99.90;;;;;;5038683;28;20224;-91
2021/11/25 03:33:02;;;;;;;4.27;2.00;;;7.10;99.90;;;;;;4689528;28;10000425;-92
2021/11/25 03:35:35;;;;;;;3.97;2.23;;;7.10;99.90;;;;;;5035824;28;20296;-94
2021/11/25 03:38:11;;;;;;;4.70;1.97;;;7.10;99.90;;;;;;5028159;28;20269;-93
2021/11/25 03:40:43;;;;;;;3.63;1.87;;;7.10;99.90;;;;;;5031685;28;20198;-90
2021/11/25 03:43:16;;;;;;;2.97;1.87;;;7.10;99.90;;;;;;5036046;28;20225;-94
2021/11/25 03:45:48;;;;;;;4.13;1.70;;;7.10;99.90;;;;;;5034027;28;20221;-91
2021/11/25 03:48:24;;;;;;;3.00;2.00;;;7.10;99.90;;;;;;5032234;28;20198;-91
2021/11/25 03:50:57;;;;;;;2.30;1.90;;;7.10;99.90;;;;;;5025269;28;20643;-90
2021/11/25 03:53:32;;;;;;;3.87;2.13;;;7.10;99.90;;;;;;5031445;28;20209;-90
2021/11/25 03:56:05;;;;;;;4.80;2.40;;;7.10;99.90;;;;;;5274416;23;20237;-90
2021/11/25 03:58:38;;;;;;;4.80;2.47;;;7.10;99.90;;;;;;5034181;28;20190;-90
2021/11/25 04:01:10;;;;;;;4.00;1.97;;;7.10;99.90;;;;;;5026298;28;20296;-90
2021/11/25 04:03:42;;;;;;;2.50;1.90;;;7.10;99.90;;;;;;5017270;28;20232;-90
2021/11/25 04:06:14;;;;;;;2.23;1.77;;;7.00;99.90;;;;;;5029499;28;20213;-90
2021/11/25 04:08:49;;;;;;;4.33;1.70;;;7.00;99.90;;;;;;5025328;28;20220;-90
2021/11/25 04:11:20;;;;;;;3.53;2.10;;;7.00;99.90;;;;;;5015892;28;20235;-90
2021/11/25 04:13:53;;;;;;;4.70;2.13;;;7.10;99.90;;;;;;5030977;28;20228;-88
2021/11/25 04:16:26;;;;;;;4.73;1.93;;;7.00;99.90;;;;;;5032008;28;20236;-88
2021/11/25 04:18:59;;;;;;;3.63;1.70;;;7.00;99.90;;;;;;5028703;28;20252;-87
2021/11/25 04:21:31;;;;;;;2.97;1.60;;;7.10;99.90;;;;;;5017259;28;20215;-86
2021/11/25 04:24:06;;;;;;;4.63;1.80;;;7.10;99.90;;;;;;5029393;28;20260;-88
2021/11/25 04:26:39;;;;;;;3.40;1.63;;;7.10;99.90;;;;;;5029922;28;20201;-88
2021/11/25 04:29:11;;;;;;;3.53;1.80;;;7.20;99.90;;;;;;5028761;28;20276;-86
2021/11/25 04:37:26;;;;;;;3.87;2.07;;;7.20;99.90;;;;;;5016700;28;20209;-84
2021/11/25 04:40:03;;;;;;;3.53;1.83;;;7.10;99.90;;;;;;5022459;28;20190;-87
2021/11/25 04:42:36;;;;;;;3.43;2.03;;;7.10;99.90;;;;;;5022195;28;20237;-88
2021/11/25 04:45:09;;;;;;;3.60;1.90;;;7.00;99.90;;;;;;5016713;28;20300;-87
2021/11/25 04:47:40;;;;;;;3.40;2.20;;;7.00;99.90;;;;;;5016381;28;20216;-85
2021/11/25 04:50:12;;;;;;;2.83;1.87;;;7.00;99.90;;;;;;5016974;28;20383;-88
2021/11/25 04:52:45;;;;;;;3.03;1.97;;;6.90;99.90;;;;;;5016885;28;20285;-87
2021/11/25 04:55:20;;;;;;;3.10;1.73;;;6.90;99.90;;;;;;5016007;28;20566;-88
2021/11/25 04:57:52;;;;;;;3.20;1.90;;;6.80;99.90;;;;;;5004432;28;20295;-88
2021/11/25 05:00:25;;;;;;;2.63;1.80;;;6.80;99.90;;;;;;5008835;28;20201;-88
2021/11/25 05:02:56;;;;;;;2.70;2.00;;;6.80;99.90;;;;;;5017618;28;20205;-88
2021/11/25 05:05:29;;;;;;;3.23;1.97;;;6.80;99.90;;;;;;5015689;28;20206;-88
2021/11/25 05:08:00;;;;;;;3.53;2.00;;;6.80;99.90;;;;;;5015979;28;20212;-88
2021/11/25 05:10:34;;;;;;;4.73;1.70;;;6.90;99.90;;;;;;5013458;28;20225;-88
2021/11/25 05:13:07;;;;;;;3.00;1.97;;;6.80;99.90;;;;;;5018488;28;20209;-89
2021/11/25 05:15:39;;;;;;;4.33;1.67;;;6.70;99.90;;;;;;5016859;28;20258;-89
2021/11/25 05:18:11;;;;;;;2.30;1.70;;;6.70;99.90;;;;;;5017433;28;20213;-89
2021/11/25 05:20:43;;;;;;;5.57;1.77;;;6.70;99.90;;;;;;5019748;28;20212;-88
2021/11/25 05:23:15;;;;;;;3.90;1.60;;;6.70;99.90;;;;;;5018643;28;20220;-87
2021/11/25 05:25:52;;;;;;;5.57;2.13;;;6.70;99.90;;;;;;5017705;28;20222;-89
2021/11/25 05:28:24;;;;;;;4.53;1.90;;;6.60;99.90;;;;;;5022459;28;20209;-88
2021/11/25 05:30:55;;;;;;;2.30;1.70;;;6.70;99.90;;;;;;5018106;28;20228;-88
2021/11/25 05:33:28;;;;;;;2.20;1.67;;;6.60;99.90;;;;;;5018810;28;20185;-89
2021/11/25 05:36:02;;;;;;;2.50;1.70;;;6.60;99.90;;;;;;5024238;28;20198;-88
2021/11/25 05:38:35;;;;;;;2.13;1.67;;;6.60;99.90;;;;;;5021088;28;20222;-88
2021/11/25 05:41:09;;;;;;;2.77;1.80;;;6.50;99.90;;;;;;5036067;28;20198;-88
2021/11/25 05:43:40;;;;;;;2.33;1.90;;;6.40;99.90;;;;;;5030037;28;20212;-87
2021/11/25 05:46:13;;;;;;;5.60;2.20;;;6.30;99.90;;;;;;5030606;28;20632;-89
2021/11/25 05:48:45;;;;;;;3.93;2.40;;;6.20;99.90;;;;;;5023839;28;20453;-88
2021/11/25 05:51:16;;;;;;;3.20;1.70;;;6.20;99.90;;;;;;5022586;28;20554;-87
2021/11/25 05:53:48;;;;;;;3.77;1.70;;;6.30;99.90;;;;;;5019089;28;20205;-88
2021/11/25 05:56:22;;;;;;;4.37;1.60;;;6.30;99.90;;;;;;5017126;28;20300;-88
2021/11/25 05:58:54;;;;;;;2.30;1.40;;;6.30;99.90;;;;;;5016951;28;20214;-87
2021/11/25 06:01:26;;;;;;;5.70;1.70;;;6.30;99.90;;;;;;5016940;28;20304;-88
2021/11/25 06:03:58;;;;;;;2.57;1.40;;;6.40;99.90;;;;;;5017107;28;20763;-88
2021/11/25 06:06:29;;;;;;;2.37;1.70;;;6.30;99.90;;;;;;5016154;28;20210;-88
2021/11/25 06:09:02;;;;;;;2.93;1.53;;;6.40;99.90;;;;;;5016748;28;20239;-89
2021/11/25 06:11:38;;;;;;;3.03;1.47;;;6.30;99.90;;;;;;5017521;28;20296;-88
2021/11/25 06:14:11;;;;;;;4.97;1.77;;;6.30;99.90;;;;;;5016596;28;20221;-89
2021/11/25 06:16:44;;;;;;;3.30;1.50;;;6.30;99.90;;;;;;5013765;28;20655;-88
2021/11/25 06:19:15;;;;;;;2.23;1.67;;;6.30;99.90;;;;;;5014138;28;20209;-89
2021/11/25 06:21:47;;;;;;;8.00;1.57;;;6.20;99.90;;;;;;5016744;28;20215;-89
2021/11/25 06:24:19;;;;;;;5.87;1.43;;;6.20;99.90;;;;;;5015547;28;20232;-88
2021/11/25 06:26:54;;;;;;;2.87;1.33;;;6.20;99.90;;;;;;5016559;28;20298;-88
2021/11/25 06:29:26;;;;;;;3.73;1.50;;;6.20;99.90;;;;;;5020107;28;20206;-88
2021/11/25 06:31:58;;;;;;;2.60;1.57;;;6.20;99.90;;;;;;5015953;28;20246;-89
2021/11/25 06:34:30;;;;;;;4.03;1.70;;;6.20;99.90;;;;;;5013401;28;20585;-88
2021/11/25 06:37:01;;;;;;;4.00;2.27;;;6.20;99.90;;;;;;5011520;28;20217;-88
2021/11/25 06:39:33;;;;;;;2.70;1.83;;;6.20;99.90;;;;;;5012285;28;20208;-88
2021/11/25 06:42:09;;;;;;;4.90;1.63;;;6.20;99.90;;;;;;5051985;23;20303;-88
2021/11/25 06:44:41;;;;;;;5.20;1.73;;;6.20;99.90;;;;;;5016016;28;20668;-88
2021/11/25 06:47:16;;;;;;;2.30;2.10;;;6.20;99.90;;;;;;5019960;28;20201;-89
2021/11/25 06:49:48;;;;;;;2.40;1.80;;;6.20;99.90;;;;;;5016712;28;20233;-87
2021/11/25 06:52:20;;;;;;;2.43;1.70;;;6.20;99.90;;;;;;5022267;28;20263;-87
2021/11/25 06:54:52;;;;;;;2.63;1.83;;;6.10;99.90;;;;;;5020558;28;20220;-88
2021/11/25 06:57:25;;;;;;;3.53;1.90;;;6.00;99.90;;;;;;5019263;28;20206;-89
2021/11/25 06:59:56;;;;;;;3.20;1.93;;;6.00;99.90;;;;;;5010144;28;20209;-88
2021/11/25 07:02:29;;;;;;;2.77;2.00;;;6.10;99.90;;;;;;5017318;28;20292;-88
2021/11/25 07:05:02;;;;;;;3.50;2.27;;;6.10;99.90;;;;;;5017870;28;20314;-87
2021/11/25 07:07:34;;;;;;;4.90;2.37;;;6.10;99.90;;;;;;5013479;28;20264;-89
2021/11/25 07:10:06;;;;;;;3.13;2.23;;;6.10;99.90;;;;;;5018201;28;20199;-88
2021/11/25 07:12:40;;;;;;;2.97;2.13;;;6.20;99.90;;;;;;5019235;28;20624;-88
2021/11/25 07:15:14;;;;;;;2.67;1.80;;;6.20;99.90;;;;;;5020456;28;20517;-89
2021/11/25 07:17:45;;;;;;;4.67;1.90;;;6.20;99.90;;;;;;5017641;28;20642;-88
2021/11/25 07:20:17;;;;;;;3.73;1.97;;;6.20;99.90;;;;;;5025714;28;20209;-89
2021/11/25 07:22:49;;;;;;;2.90;2.07;;;6.20;99.90;;;;;;5018581;28;20210;-89
2021/11/25 07:25:22;;;;;;;3.87;1.83;;;6.20;99.90;;;;;;5020409;28;20228;-88
2021/11/25 07:27:56;;;;;;;4.10;1.60;;;6.20;99.90;;;;;;5023158;28;20224;-88
2021/11/25 07:30:29;;;;;;;3.83;1.60;;;6.10;99.90;;;;;;5019283;28;20233;-88
2021/11/25 07:33:01;;;;;;;1.97;1.40;;;6.20;99.90;;;;;;5019131;28;20206;-88
2021/11/25 07:35:33;;;;;;;2.50;1.50;;;6.10;99.90;;;;;;5017648;28;20236;-88
2021/11/25 07:38:05;;;;;;;2.83;1.60;;;6.10;99.90;;;;;;5020397;28;20216;-88
2021/11/25 07:40:37;;;;;;;4.60;1.73;;;6.10;99.90;;;;;;5016534;28;20206;-89
2021/11/25 07:43:13;;;;;;;2.47;1.83;;;6.10;99.90;;;;;;5025994;28;20220;-87
2021/11/25 07:45:45;;;;;;;3.10;1.57;;;6.10;99.90;;;;;;5033771;28;20248;-88
2021/11/25 07:48:17;;;;;;;3.60;1.50;;;6.20;99.90;;;;;;5034258;28;20202;-89
2021/11/25 07:50:48;;;;;;;4.60;1.33;;;6.20;99.90;;;;;;5024272;28;20642;-89
2021/11/25 07:53:20;;;;;;;3.47;1.43;;;6.30;99.90;;;;;;5001579;28;20210;-88
2021/11/25 07:55:51;;;;;;;2.20;1.47;;;6.20;99.90;;;;;;5023103;28;20210;-89
2021/11/25 07:58:28;;;;;;;2.23;1.53;;;6.30;99.90;;;;;;5035313;28;20225;-88
2021/11/25 08:01:06;;;;;;;1.73;1.50;;;6.30;99.90;;;;;;5033452;28;20221;-88
2021/11/25 08:03:38;;;;;;;2.33;1.50;;;6.30;99.90;;;;;;5034507;28;20252;-88
2021/11/25 08:06:10;;;;;;;2.70;1.13;;;6.30;99.90;;;;;;5019909;28;20248;-89
2021/11/25 08:08:43;;;;;;;2.33;1.40;;;6.30;99.90;;;;;;5027605;28;20288;-88
2021/11/25 08:11:14;;;;;;;3.57;1.20;;;6.30;99.90;;;;;;5020342;28;20223;-89
2021/11/25 08:13:54;;;;;;;3.83;1.10;;;6.30;99.90;;;;;;5019087;28;20205;-89
2021/11/25 08:16:27;;;;;;;2.00;1.30;;;6.30;99.90;;;;;;5006142;28;20210;-88
2021/11/25 08:18:58;;;;;;;1.90;1.20;;;6.30;99.90;;;;;;4999622;28;20198;-89
2021/11/25 08:21:30;;;;;;;3.03;1.50;;;6.30;99.90;;;;;;4999161;28;20218;-89
2021/11/25 08:24:03;;;;;;;2.27;1.23;;;6.30;99.90;;;;;;5012871;28;20202;-89
2021/11/25 08:26:35;;;;;;;1.20;1.10;;;6.30;99.90;;;;;;5017677;28;20250;-89
2021/11/25 08:29:08;;;;;;;3.50;1.30;;;6.30;99.90;;;;;;5018333;28;20220;-89
2021/11/25 08:31:40;;;;;;;3.10;1.30;;;6.20;99.90;;;;;;5004130;28;20209;-89
2021/11/25 08:34:12;;;;;;;1.40;1.20;;;6.20;99.90;;;;;;5020944;28;20205;-89
2021/11/25 08:36:44;;;;;;;2.50;1.27;;;6.30;99.90;;;;;;5016942;28;20250;-88
2021/11/25 08:39:16;;;;;;;2.07;1.27;;;6.30;99.90;;;;;;5011454;28;20252;-88
2021/11/25 08:41:48;;;;;;;4.27;1.30;;;6.20;99.90;;;;;;5016936;28;20665;-88
2021/11/25 08:44:22;;;;;;;2.77;1.17;;;6.20;99.90;;;;;;5017115;28;20210;-89
2021/11/25 08:46:55;;;;;;;2.00;1.13;;;6.30;99.90;;;;;;5017032;28;20235;-88
2021/11/25 08:49:27;;;;;;;1.77;1.30;;;6.30;99.90;;;;;;5018070;28;20201;-88
2021/11/25 08:51:59;;;;;;;2.33;1.27;;;6.30;99.90;;;;;;5018259;28;20214;-88
2021/11/25 08:54:31;;;;;;;2.90;1.20;;;6.30;99.90;;;;;;5016842;28;20213;-89
2021/11/25 08:57:04;;;;;;;1.50;1.10;;;6.30;99.90;;;;;;5016851;28;20217;-89
2021/11/25 08:59:37;;;;;;;1.27;1.00;;;6.30;99.90;;;;;;5017055;28;20218;-87
2021/11/25 09:02:09;;;;;;;1.30;1.00;;;6.40;99.90;;;;;;5017716;28;20198;-88
2021/11/25 09:04:41;;;;;;;2.87;1.00;;;6.40;99.90;;;;;;5017609;28;21040;-88
2021/11/25 09:07:13;;;;;;;2.33;1.00;;;6.40;99.90;;;;;;5017154;28;20238;-87
2021/11/25 09:09:44;;;;;;;2.77;0.90;;;6.60;99.90;;;;;;5017239;28;20216;-86
2021/11/25 09:12:16;;;;;;;2.43;1.00;;;6.40;99.90;;;;;;5017437;28;20293;-88
2021/11/25 09:14:58;;;;;;;2.90;0.93;;;6.40;99.90;;;;;;5016026;28;20309;-88
2021/11/25 09:17:30;;;;;;;0.80;0.80;;;6.30;99.90;;;;;;5023267;28;20213;-89
2021/11/25 09:20:22;;;;;;;2.13;1.00;;;6.30;99.90;;;;;;5024834;28;20233;-88
2021/11/25 09:22:55;;;;;;;2.17;1.10;;;6.40;99.90;;;;;;5018558;28;20661;-89
2021/11/25 09:25:27;;;;;;;1.47;1.00;;;6.40;99.90;;;;;;5016516;28;20225;-89
2021/11/25 09:27:59;;;;;;;2.30;1.33;;;6.50;99.90;;;;;;5017234;28;20256;-89
2021/11/25 09:30:33;;;;;;;2.37;1.40;;;6.40;99.90;;;;;;5017257;28;20667;-88
2021/11/25 09:33:06;;;;;;;2.93;1.57;;;6.20;99.90;;;;;;5015604;28;20263;-89
2021/11/25 09:35:39;;;;;;;2.30;1.33;;;6.30;99.90;;;;;;5017702;28;20214;-89
2021/11/25 09:38:13;;;;;;;2.03;1.20;;;6.40;99.90;;;;;;5024332;28;20207;-89
2021/11/25 09:40:48;;;;;;;1.77;1.00;;;6.40;99.90;;;;;;5010684;28;20277;-88
2021/11/25 09:43:25;;;;;;;1.53;1.00;;;6.30;99.90;;;;;;5008687;28;20245;-88
2021/11/25 09:45:59;;;;;;;1.43;1.00;;;6.30;99.90;;;;;;5001709;28;20281;-89
2021/11/25 09:48:34;;;;;;;1.70;1.20;;;6.40;99.90;;;;;;5017717;28;20193;-87
2021/11/25 09:51:10;;;;;;;2.67;1.43;;;6.30;99.90;;;;;;5033100;28;20199;-89
2021/11/25 09:53:42;;;;;;;2.27;1.13;;;6.30;99.90;;;;;;5035641;28;20204;-87
2021/11/25 09:56:14;;;;;;;3.03;1.40;;;6.30;99.90;;;;;;5036654;28;20198;-88
2021/11/25 09:58:47;;;;;;;2.67;1.23;;;6.30;99.90;;;;;;5035239;28;20189;-89
2021/11/25 10:01:26;;;;;;;3.17;1.17;;;6.30;99.90;;;;;;5036699;28;20205;-89
2021/11/25 10:03:58;;;;;;;1.93;1.50;;;6.30;99.90;;;;;;5034734;28;20263;-88
2021/11/25 10:06:33;;;;;;;1.97;1.40;;;6.30;99.90;;;;;;5032331;28;20251;-87
2021/11/25 10:09:07;;;;;;;2.20;1.43;;;6.20;99.90;;;;;;5030609;28;20205;-88
2021/11/25 10:11:40;;;;;;;5.33;1.77;;;6.20;99.90;;;;;;5031024;28;20209;-87
2021/11/25 10:14:15;;;;;;;3.83;1.97;;;6.30;99.90;;;;;;5029453;28;20211;-88
2021/11/25 10:16:53;;;;;;;3.50;1.90;;;6.30;99.90;;;;;;5023730;28;20209;-87
2021/11/25 10:19:27;;;;;;;3.20;2.00;;;6.30;99.90;;;;;;5025145;28;20225;-89
2021/11/25 10:22:02;;;;;;;2.30;1.40;;;6.30;99.90;;;;;;5022900;28;20212;-87
2021/11/25 10:24:35;;;;;;;3.97;1.67;;;6.20;99.90;;;;;;4999958;28;20212;-88
2021/11/25 10:27:20;;;;;;;3.63;2.27;;;6.20;99.90;;;;;;5005407;28;20229;-86
2021/11/25 10:30:10;;;;;;;3.27;1.90;;;6.10;99.90;;;;;;5018112;28;20206;-86
2021/11/25 10:32:57;;;;;;;2.63;1.63;;;6.20;99.90;;;;;;5019376;28;20211;-87
2021/11/25 10:35:45;;;;;;;4.30;1.90;;;6.20;99.90;;;;;;5018247;28;20224;-88
2021/11/25 10:38:35;;;;;;;4.07;1.90;;;6.20;99.90;;;;;;5006061;28;20197;-89
2021/11/25 10:41:17;;;;;;;2.77;1.80;;;6.20;99.90;;;;;;5019792;28;20252;-89
2021/11/25 10:44:08;;;;;;;3.20;1.83;;;6.20;99.90;;;;;;5017518;28;20565;-88
2021/11/25 10:46:42;;;;;;;4.13;1.90;;;6.20;99.90;;;;;;5012064;28;20317;-89
2021/11/25 10:49:17;;;;;;;3.33;2.00;;;6.20;99.90;;;;;;4999116;28;20220;-89
2021/11/25 10:51:49;;;;;;;5.03;2.00;;;6.20;99.90;;;;;;4998618;28;20241;-88
2021/11/25 10:54:22;;;;;;;3.53;1.97;;;6.20;99.90;;;;;;5010498;28;20216;-88
2021/11/25 10:56:56;;;;;;;2.77;1.73;;;6.30;99.90;;;;;;5016227;28;20284;-88
2021/11/25 10:59:39;;;;;;;2.87;1.50;;;6.30;99.90;;;;;;5016793;28;20284;-88
2021/11/25 11:02:24;;;;;;;3.20;1.53;;;6.30;99.90;;;;;;5017225;28;20235;-88
2021/11/25 11:04:59;;;;;;;1.67;1.10;;;6.30;99.90;;;;;;5017564;28;20593;-88
2021/11/25 11:07:34;;;;;;;3.10;1.37;;;6.20;99.90;;;;;;5016210;28;20233;-88
2021/11/25 11:10:24;;;;;;;2.13;1.40;;;6.10;99.90;;;;;;5048749;22;20339;-89
2021/11/25 11:13:13;;;;;;;2.50;1.37;;;6.00;99.90;;;;;;5017785;28;20283;-88
2021/11/25 11:15:54;;;;;;;2.27;1.30;;;6.10;99.90;;;;;;5016791;28;20205;-89
2021/11/25 11:18:52;;;;;;;2.60;1.57;;;6.10;99.90;;;;;;5017409;28;20252;-89
2021/11/25 11:21:34;;;;;;;2.20;1.43;;;6.10;99.90;;;;;;5016646;28;20220;-89
2021/11/25 11:24:09;;;;;;;0.97;0.87;;;6.20;99.90;;;;;;5016592;28;20230;-88
2021/11/25 11:26:42;;;;;;;2.10;1.10;;;6.10;99.90;;;;;;5016504;28;20210;-89
2021/11/25 11:29:15;;;;;;;1.00;0.90;;;6.10;99.90;;;;;;5015681;28;20232;-89
2021/11/25 11:31:49;;;;;;;1.57;1.10;;;6.10;99.90;;;;;;5017499;28;20248;-89
2021/11/25 11:34:22;;;;;;;2.37;1.33;;;6.10;99.90;;;;;;5017356;28;20213;-88
2021/11/25 11:36:57;;;;;;;2.57;1.20;;;6.10;99.90;;;;;;5036757;28;20213;-89
2021/11/25 11:39:31;;;;;;;1.73;1.00;;;6.20;99.90;;;;;;5021245;28;20240;-89
2021/11/25 11:42:07;;;;;;;1.33;0.90;;;6.00;99.90;;;;;;5020734;28;20256;-88
2021/11/25 11:44:40;;;;;;;1.37;1.00;;;6.00;99.90;;;;;;5021338;28;20251;-88
2021/11/25 11:47:15;;;;;;;2.67;0.90;;;5.90;99.90;;;;;;5019021;28;20261;-88
2021/11/25 11:49:48;;;;;;;3.10;1.00;;;5.90;99.90;;;;;;5019961;28;20205;-86
2021/11/25 11:52:26;;;;;;;2.97;1.30;;;5.90;99.90;;;;;;5019655;28;20630;-88
2021/11/25 11:55:06;;;;;;;3.73;1.23;;;5.90;99.90;;;;;;5018537;28;20209;-89
2021/11/25 11:57:44;;;;;;;1.97;1.00;;;5.90;99.90;;;;;;5019304;28;20214;-88
2021/11/25 12:00:37;;;;;;;2.70;1.03;;;5.90;99.90;;;;;;5018812;28;20215;-89
2021/11/25 12:03:09;;;;;;;1.47;0.80;;;5.90;99.90;;;;;;5020225;28;20257;-88
2021/11/25 12:05:50;;;;;;;1.23;0.80;;;5.80;99.90;;;;;;5016347;28;20549;-88
2021/11/25 12:08:58;;;;;;;1.10;0.77;;;5.90;99.90;;;;;;5020567;28;20248;-88
2021/11/25 12:11:41;;;;;;;2.40;0.90;;;5.90;99.90;;;;;;5020415;28;20211;-87
2021/11/25 12:14:21;;;;;;;2.53;0.80;;;5.90;99.90;;;;;;5029888;28;20197;-87
2021/11/25 12:16:56;;;;;;;3.03;1.00;;;5.90;99.90;;;;;;5036692;28;20186;-87
2021/11/25 12:19:31;;;;;;;1.30;0.97;;;5.90;99.90;;;;;;5032869;28;20235;-87
2021/11/25 12:22:05;;;;;;;1.20;0.90;;;5.80;99.90;;;;;;5036620;28;20212;-87
2021/11/25 12:24:48;;;;;;;3.50;1.10;;;5.80;99.90;;;;;;5036748;28;20194;-87
2021/11/25 12:27:24;;;;;;;1.37;1.23;;;5.80;99.90;;;;;;5028618;28;20253;-87
2021/11/25 12:30:07;;;;;;;1.40;0.93;;;5.90;99.90;;;;;;5022228;28;20211;-85
2021/11/25 12:32:51;;;;;;;1.20;0.80;;;5.90;99.90;;;;;;5018546;28;20248;-87
2021/11/25 12:35:42;;;;;;;1.20;0.90;;;5.80;99.90;;;;;;5018384;28;20205;-87
2021/11/25 12:38:22;;;;;;;1.43;0.90;;;5.80;99.90;;;;;;5017439;28;20241;-87
2021/11/25 12:41:02;;;;;;;3.23;1.00;;;5.90;99.90;;;;;;5019873;28;20210;-88
2021/11/25 12:43:43;;;;;;;1.70;1.10;;;5.90;99.90;;;;;;5019465;28;20632;-88
2021/11/25 12:46:20;;;;;;;2.33;0.90;;;5.90;99.90;;;;;;5017595;28;20670;-88
2021/11/25 12:48:55;;;;;;;1.83;0.83;;;5.90;99.90;;;;;;5018091;28;20268;-89
2021/11/25 12:51:31;;;;;;;4.57;0.67;;;5.90;99.90;;;;;;5017784;28;20202;-88
2021/11/25 12:54:05;;;;;;;2.47;0.90;;;5.90;99.90;;;;;;5018961;28;20209;-87
2021/11/25 12:56:42;;;;;;;1.93;0.70;;;5.90;99.90;;;;;;5017399;28;20223;-88
2021/11/25 12:59:16;;;;;;;1.00;0.70;;;5.90;99.90;;;;;;5019274;28;20217;-88
2021/11/25 13:01:50;;;;;;;1.77;0.60;;;5.90;99.90;;;;;;5019510;28;20213;-88
2021/11/25 13:04:27;;;;;;;1.30;0.80;;;5.80;99.90;;;;;;5018161;28;20265;-89
2021/11/25 13:07:04;;;;;;;1.23;0.50;;;5.90;99.90;;;;;;5016539;28;20240;-89
2021/11/25 13:09:39;;;;;;;1.43;0.70;;;5.90;99.90;;;;;;5018170;28;20265;-87
2021/11/25 13:12:14;;;;;;;1.20;0.90;;;6.00;99.90;;;;;;5018126;28;20611;-86
2021/11/25 13:14:47;;;;;;;2.67;0.80;;;6.00;99.90;;;;;;5018130;28;20254;-89
2021/11/25 13:17:19;;;;;;;1.07;0.70;;;6.00;99.90;;;;;;5017706;28;20221;-88
2021/11/25 13:19:52;;;;;;;2.03;0.90;;;6.00;99.90;;;;;;5017938;28;20221;-88
2021/11/25 13:22:24;;;;;;;1.23;0.80;;;6.00;99.90;;;;;;5018672;28;20212;-87
2021/11/25 13:25:01;;;;;;;2.37;0.80;;;6.00;99.90;;;;;;5017489;28;20212;-86
2021/11/25 13:27:35;;;;;;;2.20;1.03;;;5.90;99.90;;;;;;5015244;28;20316;-88
2021/11/25 13:30:09;;;;;;;1.40;0.70;;;5.90;99.90;;;;;;5021012;28;20206;-88
2021/11/25 13:32:42;;;;;;;0.90;0.73;;;5.90;99.90;;;;;;5016621;28;20302;-87
2021/11/25 13:35:16;;;;;;;1.30;0.70;;;6.00;99.90;;;;;;5014469;28;20213;-88
2021/11/25 13:37:50;;;;;;;0.70;0.60;;;6.00;99.90;;;;;;5016679;28;20205;-87
2021/11/25 13:40:24;;;;;;;0.50;0.50;;;6.00;99.90;;;;;;5017492;28;20226;-87